Time;durP1;ratioP1;P1;durP2;ratioP2;P2;SDS_P1;SDS_P2;PMS_P1;PMS_P2;Temp;Humidity;BMP_temperature;BMP_pressure;BME280_temperature;BME280_humidity;BME280_pressure;Samples;Min_cycle;Max_cycle;Signal;HPM_P1;HPM_P2
2022/06/15 00:02:26;;;;;;;9.05;5.20;;;11.50;99.90;;;;;;5052360;28;20041;-80
2022/06/15 00:04:54;;;;;;;7.80;5.63;;;11.50;99.90;;;;;;5034420;28;20049;-80
2022/06/15 00:07:22;;;;;;;8.48;5.18;;;11.40;99.90;;;;;;5034722;28;20053;-80
2022/06/15 00:09:50;;;;;;;6.78;6.07;;;11.50;99.90;;;;;;5034308;28;20517;-80
2022/06/15 00:12:18;;;;;;;9.65;5.40;;;11.50;99.90;;;;;;5052103;28;20057;-80
2022/06/15 00:14:46;;;;;;;5.85;5.35;;;11.50;99.90;;;;;;5051117;28;20053;-80
2022/06/15 00:17:14;;;;;;;6.65;3.97;;;11.40;99.90;;;;;;5034396;28;20049;-80
2022/06/15 00:19:42;;;;;;;7.82;5.45;;;11.30;99.90;;;;;;5052582;28;20049;-80
2022/06/15 00:22:11;;;;;;;10.20;5.63;;;11.30;99.90;;;;;;5033984;28;20056;-80
2022/06/15 00:24:39;;;;;;;5.43;4.85;;;11.30;99.90;;;;;;5035333;28;20049;-80
2022/06/15 00:27:07;;;;;;;7.50;5.63;;;11.30;99.90;;;;;;5051464;28;20405;-80
2022/06/15 00:29:37;;;;;;;11.52;6.03;;;11.30;99.90;;;;;;5050376;28;20063;-80
2022/06/15 00:32:06;;;;;;;6.82;5.53;;;11.30;99.90;;;;;;5052516;28;20037;-80
2022/06/15 00:34:34;;;;;;;6.28;5.68;;;11.30;99.90;;;;;;5051282;28;20045;-80
2022/06/15 00:37:04;;;;;;;7.07;5.57;;;11.20;99.90;;;;;;5033891;28;20052;-80
2022/06/15 00:39:34;;;;;;;5.30;4.80;;;11.20;99.90;;;;;;5034234;28;20402;-84
2022/06/15 00:42:05;;;;;;;6.88;4.93;;;11.20;99.90;;;;;;5029142;28;20052;-79
2022/06/15 00:44:38;;;;;;;7.22;5.10;;;11.30;99.90;;;;;;5051177;28;20049;-79
2022/06/15 00:47:14;;;;;;;6.15;5.07;;;11.20;99.90;;;;;;5051832;28;20045;-79
2022/06/15 00:50:00;;;;;;;7.15;5.15;;;11.20;99.90;;;;;;5051559;28;20505;-79
2022/06/15 00:52:48;;;;;;;6.40;5.05;;;11.10;99.90;;;;;;5033851;28;20056;-79
2022/06/15 00:55:23;;;;;;;6.90;4.50;;;11.10;99.90;;;;;;5049748;28;20386;-80
2022/06/15 00:57:52;;;;;;;5.85;3.78;;;11.10;99.90;;;;;;5049893;28;20040;-79
2022/06/15 01:00:21;;;;;;;7.22;4.55;;;11.20;99.90;;;;;;5050877;28;20041;-79
2022/06/15 01:02:51;;;;;;;5.65;3.72;;;11.20;99.90;;;;;;5049982;28;20424;-79
2022/06/15 01:05:52;;;;;;;5.35;4.28;;;11.20;99.90;;;;;;5050027;28;20045;-80
2022/06/15 01:08:24;;;;;;;;;;;11.10;99.90;;;;;;5052046;28;20053;-80
2022/06/15 01:11:10;;;;;;;6.25;5.63;;;11.10;99.90;;;;;;5032771;28;19928;-79
2022/06/15 01:14:22;;;;;;;7.05;4.78;;;11.10;99.90;;;;;;5031910;28;20041;-79
2022/06/15 01:17:05;;;;;;;7.00;5.03;;;11.10;99.90;;;;;;5030708;28;20044;-79
2022/06/15 01:19:45;;;;;;;5.28;4.25;;;11.00;99.90;;;;;;5028440;28;20419;-80
2022/06/15 01:22:28;;;;;;;6.10;4.97;;;10.90;99.90;;;;;;5029799;28;20048;-80
2022/06/15 01:25:16;;;;;;;6.63;5.45;;;10.90;99.90;;;;;;5029773;28;20045;-79
2022/06/15 01:27:59;;;;;;;6.97;4.32;;;11.00;99.90;;;;;;5026153;28;20042;-80
2022/06/15 01:30:29;;;;;;;9.93;5.55;;;11.00;99.90;;;;;;4993734;28;20046;-80
2022/06/15 01:33:04;;;;;;;7.40;5.50;;;11.00;99.90;;;;;;5010322;28;20053;-80
2022/06/15 01:36:04;;;;;;;6.00;4.03;;;10.90;99.90;;;;;;5010666;28;20042;-79
2022/06/15 01:38:46;;;;;;;5.82;5.22;;;10.80;99.90;;;;;;4993184;28;20048;-80
2022/06/15 01:41:35;;;;;;;11.50;5.72;;;10.70;99.90;;;;;;5009375;28;20046;-80
2022/06/15 01:44:15;;;;;;;7.20;4.93;;;10.70;99.90;;;;;;5010320;28;20041;-80
2022/06/15 01:46:46;;;;;;;8.88;5.50;;;10.80;99.90;;;;;;5009609;28;20050;-79
2022/06/15 01:49:28;;;;;;;7.90;4.35;;;10.90;99.90;;;;;;4993332;28;20389;-80
2022/06/15 01:51:59;;;;;;;7.10;4.00;;;11.00;99.90;;;;;;5010044;28;20054;-80
2022/06/15 01:54:40;;;;;;;6.25;4.22;;;11.00;99.90;;;;;;5011061;28;20042;-80
2022/06/15 01:57:09;;;;;;;;;;;11.10;99.90;;;;;;4995920;28;20053;-80
2022/06/15 01:59:57;;;;;;;8.75;5.57;;;11.30;99.90;;;;;;5013046;28;19936;-80
2022/06/15 02:02:31;;;;;;;6.05;5.28;;;11.60;99.90;;;;;;5029312;28;20052;-80
2022/06/15 02:05:08;;;;;;;4.22;3.63;;;11.70;99.90;;;;;;5012750;28;20065;-81
2022/06/15 02:08:00;;;;;;;10.65;5.03;;;11.70;99.90;;;;;;4999912;28;20053;-80
2022/06/15 02:10:35;;;;;;;3.97;3.60;;;11.60;99.90;;;;;;5005047;28;20030;-79
2022/06/15 02:13:14;;;;;;;5.18;4.50;;;11.70;99.90;;;;;;5004026;28;20386;-80
2022/06/15 02:15:47;;;;;;;5.27;4.63;;;11.60;99.90;;;;;;5028492;28;20067;-80
2022/06/15 02:18:20;;;;;;;6.40;4.47;;;11.50;99.90;;;;;;5048875;28;20535;-80
2022/06/15 02:20:55;;;;;;;7.90;4.50;;;11.40;99.90;;;;;;5032487;28;20067;-80
2022/06/15 02:23:24;;;;;;;9.55;5.28;;;11.40;99.90;;;;;;5026864;28;20049;-79
2022/06/15 02:25:54;;;;;;;11.27;5.55;;;11.50;99.90;;;;;;5044020;28;20037;-79
2022/06/15 02:28:27;;;;;;;5.13;4.05;;;11.50;99.90;;;;;;5032187;28;20571;-80
2022/06/15 02:30:57;;;;;;;4.40;4.00;;;11.40;99.90;;;;;;5032237;28;20516;-80
2022/06/15 02:33:28;;;;;;;5.25;3.95;;;11.20;99.90;;;;;;5032095;28;20040;-80
2022/06/15 02:35:59;;;;;;;3.42;3.13;;;11.00;99.90;;;;;;5032604;28;20052;-80
2022/06/15 02:38:29;;;;;;;5.97;4.13;;;10.90;99.90;;;;;;5011434;28;20041;-80
2022/06/15 02:40:58;;;;;;;4.68;4.32;;;10.90;99.90;;;;;;5029996;28;20486;-80
2022/06/15 02:43:29;;;;;;;7.47;4.15;;;10.90;99.90;;;;;;5032354;28;20045;-80
2022/06/15 02:46:00;;;;;;;5.78;4.95;;;10.90;99.90;;;;;;5006273;28;20055;-79
2022/06/15 02:48:37;;;;;;;5.57;4.15;;;10.90;99.90;;;;;;5048850;28;20043;-79
2022/06/15 02:51:36;;;;;;;7.80;4.65;;;10.80;99.90;;;;;;5031527;28;20048;-79
2022/06/15 02:54:10;;;;;;;10.82;5.03;;;10.50;99.90;;;;;;5032042;28;20048;-80
2022/06/15 02:56:39;;;;;;;5.03;3.58;;;10.30;99.90;;;;;;5048293;28;20049;-79
2022/06/15 02:59:08;;;;;;;7.75;5.80;;;10.20;99.90;;;;;;5033244;28;20044;-79
2022/06/15 03:01:40;;;;;;;6.95;4.45;;;10.20;99.90;;;;;;5019292;28;20053;-80
2022/06/15 03:09:45;;;;;;;5.70;5.10;;;10.40;99.90;;;;;;5052433;28;20041;-79
2022/06/15 03:29:25;;;;;;;6.10;5.50;;;10.10;99.90;;;;;;5027778;28;20030;-79
2022/06/15 03:31:58;;;;;;;5.13;4.18;;;10.10;99.90;;;;;;5032728;28;20044;-79
2022/06/15 03:34:29;;;;;;;7.72;5.07;;;10.10;99.90;;;;;;4999198;28;20053;-79
2022/06/15 03:36:57;;;;;;;8.82;5.30;;;10.10;99.90;;;;;;5031643;28;20048;-79
2022/06/15 03:39:25;;;;;;;5.63;4.82;;;10.10;99.90;;;;;;5032225;28;20052;-79
2022/06/15 03:42:10;;;;;;;9.75;5.85;;;10.10;99.90;;;;;;5031301;28;20041;-79
2022/06/15 03:44:40;;;;;;;10.52;5.35;;;10.10;99.90;;;;;;4999620;28;20053;-79
2022/06/15 03:47:17;;;;;;;4.80;4.35;;;10.10;99.90;;;;;;5015382;28;20042;-78
2022/06/15 04:08:42;;;;;;;6.57;5.68;;;10.10;99.90;;;;;;5033749;28;20037;-79
2022/06/15 04:14:23;;;;;;;9.48;5.97;;;10.60;99.90;;;;;;5027452;28;20060;-80
2022/06/15 04:17:03;;;;;;;7.13;5.65;;;11.20;99.90;;;;;;5014779;28;20049;-81
2022/06/15 04:20:31;;;;;;;8.10;7.03;;;11.50;99.90;;;;;;5012642;28;20056;-80
2022/06/15 04:22:37;;;;;;;8.35;5.20;;;11.80;99.90;;;;;;4998096;28;20038;-80
2022/06/15 04:25:05;;;;;;;7.82;6.03;;;12.00;99.90;;;;;;5014409;28;20080;-79
2022/06/15 04:27:35;;;;;;;8.18;5.70;;;12.10;99.90;;;;;;5014205;28;20045;-80
2022/06/15 04:30:04;;;;;;;8.50;5.07;;;12.20;99.90;;;;;;5049286;28;20056;-80
2022/06/15 04:32:33;;;;;;;8.73;6.60;;;12.30;99.90;;;;;;5018743;28;20045;-80
2022/06/15 04:35:05;;;;;;;10.82;6.90;;;12.40;99.90;;;;;;5044228;28;20052;-80
2022/06/15 04:37:38;;;;;;;7.13;6.43;;;12.40;99.90;;;;;;5017215;28;20663;-84
2022/06/15 04:40:26;;;;;;;5.78;5.13;;;12.40;99.90;;;;;;5051092;28;20490;-80
2022/06/15 04:42:57;;;;;;;7.10;5.65;;;12.50;99.90;;;;;;5033447;28;20037;-80
2022/06/15 04:45:25;;;;;;;5.93;5.43;;;12.50;99.90;;;;;;5034118;28;20489;-81
2022/06/15 04:48:16;;;;;;;10.15;5.97;;;12.50;99.90;;;;;;5031541;28;20053;-83
2022/06/15 04:50:45;;;;;;;6.07;5.45;;;12.50;99.90;;;;;;5033638;28;20725;-80
2022/06/15 04:53:13;;;;;;;11.57;5.90;;;12.40;99.90;;;;;;5047783;28;20049;-80
2022/06/15 04:55:42;;;;;;;7.18;6.40;;;12.40;99.90;;;;;;5015678;28;20474;-80
2022/06/15 04:58:13;;;;;;;5.93;5.30;;;12.40;99.90;;;;;;5033265;28;20041;-80
2022/06/15 05:00:42;;;;;;;7.50;5.57;;;12.40;99.90;;;;;;5050944;28;20482;-80
2022/06/15 05:03:13;;;;;;;6.32;5.13;;;12.40;99.90;;;;;;5001317;28;20037;-80
2022/06/15 05:05:43;;;;;;;6.65;6.05;;;12.50;99.90;;;;;;5050237;28;20490;-79
2022/06/15 05:08:11;;;;;;;6.78;5.30;;;12.60;99.90;;;;;;5033892;28;20049;-80
2022/06/15 05:10:44;;;;;;;5.72;5.22;;;12.60;99.90;;;;;;5034091;28;20045;-80
2022/06/15 05:13:12;;;;;;;12.73;6.25;;;12.70;99.90;;;;;;5049478;28;20057;-80
2022/06/15 05:15:44;;;;;;;8.38;5.65;;;12.80;99.90;;;;;;5028615;28;20050;-80
2022/06/15 05:18:13;;;;;;;7.88;5.47;;;12.90;99.90;;;;;;5010306;28;20061;-80
2022/06/15 05:20:42;;;;;;;7.43;6.50;;;12.90;99.90;;;;;;5028076;28;20057;-80
2022/06/15 05:23:17;;;;;;;7.85;6.28;;;13.10;99.90;;;;;;5025291;28;20038;-80
2022/06/15 05:26:24;;;;;;;9.35;5.97;;;13.20;99.90;;;;;;4950373;28;20046;-79
2022/06/15 05:28:54;;;;;;;8.68;6.68;;;13.30;99.90;;;;;;5008655;28;20483;-80
2022/06/15 05:31:22;;;;;;;10.98;7.53;;;13.30;99.90;;;;;;5014267;28;20045;-80
2022/06/15 05:33:56;;;;;;;10.40;5.43;;;13.40;99.90;;;;;;5029620;28;20045;-80
2022/06/15 05:36:28;;;;;;;6.15;5.65;;;13.40;99.90;;;;;;5013905;28;20371;-80
2022/06/15 05:38:56;;;;;;;8.23;7.43;;;13.40;99.90;;;;;;4996965;28;20060;-80
2022/06/15 05:41:26;;;;;;;10.05;6.05;;;13.40;99.90;;;;;;5029232;28;20123;-80
2022/06/15 05:44:01;;;;;;;9.80;7.53;;;13.40;99.90;;;;;;5014239;28;20049;-79
2022/06/15 05:46:34;;;;;;;10.80;6.63;;;13.50;99.90;;;;;;5012902;28;20051;-80
2022/06/15 05:49:20;;;;;;;6.68;4.72;;;13.50;99.90;;;;;;4992881;28;20053;-80
2022/06/15 05:51:48;;;;;;;6.47;5.25;;;13.60;99.90;;;;;;5027960;28;20061;-80
2022/06/15 05:54:16;;;;;;;7.75;5.95;;;13.80;99.90;;;;;;5029330;28;20049;-81
2022/06/15 05:56:44;;;;;;;16.73;8.23;;;14.00;99.90;;;;;;5029031;28;20550;-80
2022/06/15 05:59:13;;;;;;;12.27;6.32;;;14.20;99.90;;;;;;5030061;28;20528;-80
2022/06/15 06:01:41;;;;;;;8.23;7.07;;;14.40;99.90;;;;;;4996475;28;20053;-80
2022/06/15 06:04:16;;;;;;;7.53;6.72;;;14.70;99.90;;;;;;5013538;28;20049;-80
2022/06/15 06:06:45;;;;;;;8.00;7.20;;;14.90;99.90;;;;;;5044210;28;20052;-80
2022/06/15 06:09:13;;;;;;;6.55;5.95;;;15.20;99.90;;;;;;5028756;28;20053;-80
2022/06/15 06:11:40;;;;;;;5.85;5.25;;;15.40;99.90;;;;;;5047454;28;20505;-82
2022/06/15 06:14:08;;;;;;;6.55;5.95;;;15.60;99.90;;;;;;5015831;28;20059;-80
2022/06/15 06:16:36;;;;;;;6.55;5.82;;;15.70;99.90;;;;;;5033283;28;20045;-80
2022/06/15 06:19:04;;;;;;;8.95;6.65;;;15.90;99.90;;;;;;5015521;28;20059;-82
2022/06/15 06:21:32;;;;;;;7.57;6.60;;;16.10;99.90;;;;;;5048339;28;20033;-81
2022/06/15 06:24:00;;;;;;;6.15;5.55;;;16.10;99.90;;;;;;5016637;28;20402;-80
2022/06/15 06:26:33;;;;;;;7.40;5.88;;;16.10;99.90;;;;;;5049695;28;20045;-82
2022/06/15 06:29:02;;;;;;;21.77;6.80;;;15.90;99.90;;;;;;5032209;28;20056;-80
2022/06/15 06:31:31;;;;;;;6.78;5.82;;;16.00;99.90;;;;;;5050488;28;20049;-81
2022/06/15 06:33:59;;;;;;;5.93;5.32;;;16.10;99.90;;;;;;5031270;28;20045;-80
2022/06/15 06:36:41;;;;;;;4.45;4.05;;;16.20;99.90;;;;;;5050623;28;20048;-81
2022/06/15 06:39:17;;;;;;;5.20;4.45;;;16.30;99.90;;;;;;5028519;28;20038;-81
2022/06/15 06:41:45;;;;;;;5.63;5.15;;;16.40;99.90;;;;;;5029462;28;20048;-81
2022/06/15 06:44:14;;;;;;;5.97;5.32;;;16.50;99.90;;;;;;5016207;28;20045;-83
2022/06/15 06:46:44;;;;;;;6.00;4.68;;;16.60;99.90;;;;;;5015871;28;20044;-81
2022/06/15 06:49:13;;;;;;;12.63;6.32;;;16.60;99.90;;;;;;5031656;28;20056;-81
2022/06/15 06:51:42;;;;;;;6.05;5.25;;;16.70;99.90;;;;;;5050293;28;20055;-80
2022/06/15 06:54:12;;;;;;;6.85;6.15;;;16.80;99.90;;;;;;5015597;28;20049;-82
2022/06/15 06:56:40;;;;;;;6.40;4.95;;;16.80;99.90;;;;;;5031562;28;20080;-81
2022/06/15 06:59:12;;;;;;;6.95;5.38;;;16.90;99.90;;;;;;5031769;28;20585;-80
2022/06/15 07:01:42;;;;;;;4.80;4.38;;;16.90;99.90;;;;;;5049854;28;20482;-81
2022/06/15 07:04:14;;;;;;;12.27;5.30;;;17.00;99.90;;;;;;5032450;28;20075;-81
2022/06/15 07:06:43;;;;;;;5.00;4.60;;;17.10;99.90;;;;;;5049210;28;20045;-80
2022/06/15 07:09:12;;;;;;;6.57;4.68;;;17.20;99.90;;;;;;5049661;28;20049;-81
2022/06/15 07:11:44;;;;;;;6.45;4.72;;;17.30;99.90;;;;;;5049459;28;20059;-81
2022/06/15 07:14:12;;;;;;;10.80;5.25;;;17.50;99.90;;;;;;5031680;28;20060;-80
2022/06/15 07:16:42;;;;;;;9.57;5.22;;;17.60;99.90;;;;;;5050555;28;20490;-80
2022/06/15 07:19:10;;;;;;;9.60;6.15;;;17.80;99.90;;;;;;5049750;28;20041;-80
2022/06/15 07:21:40;;;;;;;5.57;4.63;;;18.00;99.90;;;;;;5045483;28;20038;-81
2022/06/15 07:24:08;;;;;;;6.45;4.90;;;18.10;99.90;;;;;;5038151;28;20061;-81
2022/06/15 07:26:42;;;;;;;6.63;4.65;;;18.20;99.90;;;;;;5044287;28;20045;-80
2022/06/15 07:29:12;;;;;;;10.38;6.85;;;18.50;99.90;;;;;;5031268;28;20041;-80
2022/06/15 07:31:44;;;;;;;6.47;5.88;;;18.60;99.90;;;;;;5050318;28;20045;-80
2022/06/15 07:34:13;;;;;;;9.48;5.75;;;18.70;99.90;;;;;;5031666;28;20048;-80
2022/06/15 07:36:46;;;;;;;4.53;4.18;;;18.80;99.90;;;;;;5015361;28;20064;-81
2022/06/15 07:39:20;;;;;;;5.65;5.10;;;19.00;99.90;;;;;;5014417;28;20604;-80
2022/06/15 07:41:48;;;;;;;7.53;4.25;;;19.00;99.90;;;;;;5047319;28;20041;-80
2022/06/15 07:44:18;;;;;;;5.28;4.75;;;19.10;99.90;;;;;;5000287;28;20489;-81
2022/06/15 07:46:47;;;;;;;5.63;5.07;;;19.10;99.90;;;;;;5035211;28;20059;-81
2022/06/15 07:52:04;;;;;;;3.85;3.30;;;19.40;99.90;;;;;;5034761;28;20049;-81
2022/06/15 07:54:32;;;;;;;8.48;4.60;;;19.50;99.90;;;;;;5035031;28;20056;-82
2022/06/15 07:57:00;;;;;;;4.20;3.00;;;19.70;99.90;;;;;;5052105;28;20057;-81
2022/06/15 07:59:28;;;;;;;12.57;4.05;;;19.80;99.90;;;;;;5051348;28;20052;-81
2022/06/15 08:01:56;;;;;;;7.45;4.65;;;19.90;99.90;;;;;;5052746;28;20695;-80
2022/06/15 08:04:24;;;;;;;3.83;3.53;;;20.00;99.90;;;;;;5052892;28;20053;-79
2022/06/15 08:06:52;;;;;;;5.82;4.18;;;20.00;99.90;;;;;;5052350;28;20048;-81
2022/06/15 08:09:21;;;;;;;5.85;4.43;;;20.00;99.90;;;;;;5052128;28;20504;-81
2022/06/15 08:14:47;;;;;;;4.65;3.97;;;20.40;99.90;;;;;;5009286;28;20064;-81
2022/06/15 08:17:31;;;;;;;4.60;3.80;;;20.50;99.90;;;;;;5031192;28;20048;-81
2022/06/15 08:20:13;;;;;;;4.47;3.83;;;20.60;99.90;;;;;;5015239;28;20050;-81
2022/06/15 08:22:47;;;;;;;5.07;4.63;;;20.60;99.90;;;;;;5014788;28;20049;-80
2022/06/15 08:25:20;;;;;;;3.67;3.40;;;20.80;99.90;;;;;;5028608;28;20045;-86
2022/06/15 08:27:58;;;;;;;6.13;4.72;;;20.80;99.90;;;;;;5038133;28;20592;-82
2022/06/15 08:30:28;;;;;;;9.20;4.97;;;20.90;99.90;;;;;;5030617;28;20045;-81
2022/06/15 08:32:59;;;;;;;4.05;3.00;;;21.00;99.90;;;;;;5023713;28;20050;-82
2022/06/15 08:35:27;;;;;;;5.20;4.40;;;21.00;99.90;;;;;;5010220;28;20054;-79
2022/06/15 08:37:56;;;;;;;5.72;4.70;;;21.00;99.90;;;;;;5047145;28;20502;-79
2022/06/15 08:40:28;;;;;;;11.57;3.67;;;21.10;99.90;;;;;;5029525;28;20056;-78
2022/06/15 08:42:58;;;;;;;9.68;3.70;;;21.10;99.90;;;;;;5048154;28;20047;-79
2022/06/15 08:45:32;;;;;;;4.32;3.17;;;21.20;99.90;;;;;;5045988;28;20045;-79
2022/06/15 08:48:38;;;;;;;7.40;4.22;;;21.30;99.90;;;;;;5030526;28;20403;-83
2022/06/15 08:51:32;;;;;;;2.58;2.38;;;21.30;99.90;;;;;;5048917;28;20049;-82
2022/06/15 08:54:10;;;;;;;5.53;3.33;;;21.40;99.90;;;;;;5005486;28;20053;-79
2022/06/15 08:56:45;;;;;;;3.53;2.95;;;21.40;99.90;;;;;;5047415;28;20049;-81
2022/06/15 08:59:46;;;;;;;3.72;2.97;;;21.40;99.90;;;;;;5032898;28;20049;-81
2022/06/15 09:02:50;;;;;;;2.78;2.58;;;21.50;99.90;;;;;;5030943;28;20049;-79
2022/06/15 09:05:33;;;;;;;5.65;3.95;;;21.60;99.90;;;;;;5027308;28;20053;-79
2022/06/15 09:08:21;;;;;;;3.42;3.20;;;21.80;99.90;;;;;;5036884;28;20049;-79
2022/06/15 09:11:11;;;;;;;4.32;2.92;;;21.90;99.90;;;;;;5023997;28;20052;-82
2022/06/15 09:14:17;;;;;;;5.68;2.22;;;22.00;99.90;;;;;;5022447;28;20053;-79
2022/06/15 09:16:55;;;;;;;;;;;22.10;99.90;;;;;;5041207;28;20045;-80
2022/06/15 09:19:29;;;;;;;6.43;3.30;;;22.10;99.90;;;;;;5037042;28;19925;-79
2022/06/15 09:22:22;;;;;;;4.40;2.78;;;22.10;99.90;;;;;;5045264;28;20045;-80
2022/06/15 09:25:00;;;;;;;22.38;3.92;;;22.00;99.90;;;;;;5031378;28;20507;-80
2022/06/15 09:27:40;;;;;;;7.00;3.20;;;22.10;99.90;;;;;;5030852;28;20056;-84
2022/06/15 09:30:19;;;;;;;;;;;22.20;99.90;;;;;;5033940;28;20044;-84
2022/06/15 09:33:22;;;;;;;5.75;2.40;;;22.30;99.90;;;;;;5028498;28;20377;-83
2022/06/15 09:36:00;;;;;;;8.05;2.65;;;22.30;99.90;;;;;;5051482;28;20052;-83
2022/06/15 09:38:31;;;;;;;4.22;2.70;;;22.30;99.90;;;;;;5032410;28;20045;-85
2022/06/15 09:41:12;;;;;;;3.08;2.45;;;22.30;99.90;;;;;;5032824;28;20040;-87
2022/06/15 09:44:09;;;;;;;5.40;3.03;;;22.40;99.90;;;;;;5051164;28;20049;-84
2022/06/15 09:47:24;;;;;;;3.25;3.05;;;22.50;99.90;;;;;;5019240;28;20409;-86
2022/06/15 09:50:13;;;;;;;12.85;2.50;;;22.70;99.90;;;;;;5031952;28;20055;-86
2022/06/15 09:53:07;;;;;;;4.43;2.80;;;22.70;99.90;;;;;;5050055;28;20052;-85
2022/06/15 09:55:45;;;;;;;2.65;2.10;;;22.70;99.90;;;;;;5015507;28;20133;-86
2022/06/15 09:58:55;;;;;;;3.33;2.65;;;22.70;99.90;;;;;;5011047;28;20403;-80
2022/06/15 10:01:41;;;;;;;;;;;22.80;99.90;;;;;;5040432;28;20041;-85
2022/06/15 10:13:51;;;;;;;4.18;2.17;;;23.00;99.90;;;;;;5016950;28;20061;-85
2022/06/15 10:16:40;;;;;;;3.22;2.85;;;23.10;99.90;;;;;;4954750;28;20050;-87
2022/06/15 10:19:45;;;;;;;3.17;2.20;;;23.10;99.90;;;;;;4969353;28;20645;-86
2022/06/15 10:22:32;;;;;;;5.97;2.53;;;23.20;99.90;;;;;;4966616;28;20155;-83
2022/06/15 10:28:41;;;;;;;2.38;2.15;;;23.40;99.90;;;;;;4947398;28;20043;-83
2022/06/15 10:31:35;;;;;;;6.70;2.45;;;23.40;99.90;;;;;;4983022;28;20528;-83
2022/06/15 10:34:33;;;;;;;1.80;1.70;;;23.40;99.90;;;;;;4983826;28;20038;-82
2022/06/15 10:37:35;;;;;;;4.25;1.98;;;23.50;99.90;;;;;;4977093;28;20571;-84
2022/06/15 10:40:58;;;;;;;3.85;2.55;;;23.70;99.90;;;;;;4962853;28;20080;-84
2022/06/15 10:43:51;;;;;;;3.00;2.67;;;23.70;99.90;;;;;;4935341;28;20042;-83
2022/06/15 10:46:25;;;;;;;3.50;2.85;;;23.70;99.90;;;;;;4974619;28;20039;-84
2022/06/15 10:48:57;;;;;;;14.90;3.38;;;23.80;99.90;;;;;;5006522;28;20049;-84
2022/06/15 10:51:39;;;;;;;4.70;2.38;;;23.80;99.90;;;;;;4992359;28;20058;-84
2022/06/15 10:54:33;;;;;;;2.63;2.42;;;23.80;99.90;;;;;;5004754;28;20704;-85
2022/06/15 11:03:41;;;;;;;2.25;2.10;;;24.00;99.90;;;;;;5044794;28;20040;-84
2022/06/15 11:06:36;;;;;;;2.05;1.85;;;24.10;99.70;;;;;;5016486;28;20051;-84
2022/06/15 11:10:02;;;;;;;3.80;2.20;;;24.00;99.90;;;;;;5007533;28;20052;-84
2022/06/15 11:13:36;;;;;;;;;;;;;;;;;;;;;
2022/06/15 11:19:18;;;;;;;5.35;2.13;;;24.20;99.20;;;;;;4934301;28;20393;-83
2022/06/15 11:27:04;;;;;;;2.38;1.75;;;24.10;98.00;;;;;;4903583;29;20051;-82
2022/06/15 11:30:34;;;;;;;5.03;2.10;;;24.20;99.90;;;;;;4950664;28;20058;-84
2022/06/15 11:33:30;;;;;;;2.25;2.05;;;24.50;99.90;;;;;;4935415;28;20086;-83
2022/06/15 11:36:28;;;;;;;4.60;2.20;;;24.50;99.90;;;;;;4940053;28;20119;-83
2022/06/15 11:39:11;;;;;;;2.85;2.30;;;24.60;99.90;;;;;;4935108;28;20057;-83
2022/06/15 11:41:44;;;;;;;2.55;2.35;;;24.60;99.90;;;;;;4928594;29;20825;-83
2022/06/15 11:44:55;;;;;;;3.20;2.90;;;24.80;99.90;;;;;;4896725;29;20080;-83
2022/06/15 11:47:52;;;;;;;3.80;2.78;;;24.70;99.90;;;;;;4907033;29;20054;-84
2022/06/15 11:50:29;;;;;;;2.03;1.75;;;24.70;99.90;;;;;;4906529;29;20826;-83
2022/06/15 11:53:42;;;;;;;2.20;2.00;;;24.70;99.90;;;;;;4909878;29;20060;-83
2022/06/15 11:56:15;;;;;;;2.17;1.90;;;24.70;97.20;;;;;;4886133;29;20067;-83
2022/06/15 11:59:05;;;;;;;2.30;2.20;;;24.70;97.30;;;;;;4924699;28;20052;-83
2022/06/15 12:01:57;;;;;;;2.53;2.33;;;24.60;99.90;;;;;;4925282;29;20052;-83
2022/06/15 12:04:46;;;;;;;2.35;2.17;;;24.70;99.90;;;;;;4893155;29;20091;-82
2022/06/15 12:07:20;;;;;;;1.83;1.70;;;24.90;99.90;;;;;;4906962;28;20489;-83
2022/06/15 12:09:57;;;;;;;2.75;2.55;;;24.90;99.90;;;;;;4909038;29;20052;-83
2022/06/15 12:12:41;;;;;;;3.38;3.08;;;24.90;99.90;;;;;;4924926;29;20459;-84
2022/06/15 12:15:47;;;;;;;3.45;2.53;;;24.90;99.90;;;;;;4930080;28;20645;-83
2022/06/15 12:18:37;;;;;;;3.47;2.28;;;24.90;99.90;;;;;;4942707;28;20039;-84
2022/06/15 12:21:40;;;;;;;2.88;2.15;;;24.90;99.90;;;;;;4956307;28;20548;-83
2022/06/15 12:24:47;;;;;;;6.28;2.95;;;25.10;99.90;;;;;;4900023;28;20719;-83
2022/06/15 12:27:46;;;;;;;2.22;2.10;;;25.20;98.90;;;;;;4953275;28;20050;-84
2022/06/15 12:30:58;;;;;;;2.47;2.20;;;25.30;97.50;;;;;;4943153;28;20053;-83
2022/06/15 12:34:49;;;;;;;;;;;;;;;;;;;;;
2022/06/15 12:38:50;;;;;;;2.67;2.40;;;25.20;98.70;;;;;;4967394;28;20046;-84
2022/06/15 12:42:11;;;;;;;3.08;2.60;;;25.30;97.80;;;;;;4908832;29;20064;-85
2022/06/15 12:44:57;;;;;;;3.92;1.90;;;25.30;97.80;;;;;;4895818;29;20047;-85
2022/06/15 12:48:05;;;;;;;4.78;3.20;;;25.50;98.60;;;;;;4930892;28;20064;-84
2022/06/15 12:51:31;;;;;;;3.45;2.58;;;25.50;98.80;;;;;;4936932;28;20058;-84
2022/06/15 12:55:26;;;;;;;2.78;2.47;;;25.50;99.90;;;;;;4955588;28;20061;-80
2022/06/15 12:58:12;;;;;;;7.10;2.67;;;25.60;96.90;;;;;;4967751;28;20089;-81
2022/06/15 13:01:08;;;;;;;2.15;1.95;;;25.50;98.20;;;;;;4968451;28;20500;-83
2022/06/15 13:04:02;;;;;;;2.25;2.05;;;25.60;97.30;;;;;;4968396;28;20047;-80
2022/06/15 13:15:40;;;;;;;2.25;2.15;;;25.80;96.90;;;;;;4926449;29;20433;-81
2022/06/15 13:20:04;;;;;;;2.35;2.15;;;25.70;99.90;;;;;;4947802;28;20046;-81
2022/06/15 13:28:27;;;;;;;3.00;2.25;;;25.90;99.00;;;;;;4929422;29;20053;-84
2022/06/15 13:31:18;;;;;;;2.25;2.05;;;26.10;99.80;;;;;;4935815;28;20039;-86
2022/06/15 13:34:39;;;;;;;2.88;2.67;;;26.20;99.90;;;;;;4931267;29;20043;-85
2022/06/15 13:37:26;;;;;;;4.85;2.47;;;26.10;99.90;;;;;;4930945;29;20051;-84
2022/06/15 13:40:01;;;;;;;8.75;2.13;;;26.10;98.80;;;;;;4947920;28;20791;-84
2022/06/15 13:43:01;;;;;;;3.30;2.45;;;26.20;98.90;;;;;;4932931;29;20054;-83
2022/06/15 13:45:29;;;;;;;2.45;2.15;;;26.20;96.40;;;;;;4950851;29;20063;-84
2022/06/15 13:48:09;;;;;;;2.50;2.30;;;26.20;96.70;;;;;;4948700;29;20051;-85
2022/06/15 13:50:43;;;;;;;5.13;3.03;;;26.00;97.10;;;;;;4948418;29;20047;-86
2022/06/15 13:53:31;;;;;;;5.53;2.40;;;25.90;99.90;;;;;;4931917;29;20412;-84
2022/06/15 13:56:04;;;;;;;3.80;2.30;;;26.10;99.90;;;;;;4913563;29;20050;-83
2022/06/15 13:59:20;;;;;;;4.18;2.65;;;26.20;99.90;;;;;;4911412;29;20051;-86
2022/06/15 14:02:46;;;;;;;3.38;2.38;;;26.20;99.90;;;;;;4902335;29;20077;-84
2022/06/15 14:05:46;;;;;;;2.50;2.30;;;26.30;99.50;;;;;;4856760;29;20072;-85
2022/06/15 14:08:39;;;;;;;4.30;2.83;;;26.30;99.20;;;;;;4887610;29;20079;-85
2022/06/15 14:11:23;;;;;;;4.32;2.33;;;26.30;95.50;;;;;;4925339;29;21185;-83
2022/06/15 14:14:12;;;;;;;6.35;1.80;;;26.30;96.20;;;;;;4936647;28;20051;-83
2022/06/15 14:16:51;;;;;;;1.92;1.83;;;26.30;95.70;;;;;;4967197;28;20062;-83
2022/06/15 14:19:57;;;;;;;2.77;2.50;;;26.30;96.40;;;;;;4966716;28;20054;-83
2022/06/15 14:22:25;;;;;;;4.88;2.20;;;26.40;96.20;;;;;;4952475;28;20567;-83
2022/06/15 14:25:09;;;;;;;2.40;2.20;;;26.40;93.80;;;;;;4967596;28;20065;-82
2022/06/15 14:27:37;;;;;;;3.03;2.55;;;26.40;94.70;;;;;;4966343;28;20046;-83
2022/06/15 14:30:46;;;;;;;2.00;1.80;;;26.40;94.50;;;;;;4966655;28;20038;-84
2022/06/15 14:38:04;;;;;;;2.55;2.20;;;26.50;94.10;;;;;;4946296;28;20054;-83
2022/06/15 14:41:13;;;;;;;2.55;2.35;;;26.40;94.80;;;;;;4977510;28;20054;-85
2022/06/15 14:55:15;;;;;;;2.17;2.08;;;26.80;95.20;;;;;;4976530;28;20488;-84
2022/06/15 14:57:47;;;;;;;2.83;2.53;;;26.90;94.80;;;;;;4966012;28;20046;-85
2022/06/15 15:00:31;;;;;;;2.25;2.13;;;26.70;94.30;;;;;;4958822;28;20058;-79
2022/06/15 15:03:40;;;;;;;2.30;2.10;;;26.50;94.60;;;;;;4964507;28;20051;-86
2022/06/15 15:06:14;;;;;;;2.85;2.50;;;26.50;94.50;;;;;;4949357;28;20921;-82
2022/06/15 15:08:49;;;;;;;2.20;2.10;;;26.60;95.30;;;;;;4965012;28;20047;-80
2022/06/15 15:11:33;;;;;;;3.45;2.90;;;26.70;95.00;;;;;;4945884;28;20053;-84
2022/06/15 15:14:33;;;;;;;4.40;3.30;;;26.80;95.50;;;;;;4976706;28;20043;-81
2022/06/15 15:17:12;;;;;;;5.40;3.13;;;26.90;94.10;;;;;;4966489;28;20058;-82
2022/06/15 15:19:43;;;;;;;2.40;2.13;;;26.90;95.70;;;;;;4932574;28;20059;-82
2022/06/15 15:22:18;;;;;;;7.90;2.05;;;26.90;96.70;;;;;;4948418;28;20046;-85
2022/06/15 15:25:00;;;;;;;2.20;2.00;;;27.00;94.50;;;;;;4934268;28;20082;-83
2022/06/15 15:34:29;;;;;;;3.25;2.38;;;27.00;94.60;;;;;;4929183;28;20044;-82
2022/06/15 15:37:37;;;;;;;2.43;2.23;;;27.10;95.40;;;;;;4894945;29;20059;-84
2022/06/15 15:40:21;;;;;;;3.67;2.80;;;27.10;93.70;;;;;;4909436;29;20047;-81
2022/06/15 15:42:55;;;;;;;4.50;2.58;;;27.00;95.50;;;;;;4921876;29;20047;-80
2022/06/15 15:45:24;;;;;;;2.90;2.72;;;27.10;94.30;;;;;;4946810;28;20058;-81
2022/06/15 15:47:57;;;;;;;2.35;2.15;;;27.00;95.30;;;;;;4895617;29;20473;-81
2022/06/15 15:50:25;;;;;;;5.05;2.70;;;27.10;94.00;;;;;;4945754;28;20050;-82
2022/06/15 15:52:59;;;;;;;2.95;2.70;;;27.20;95.50;;;;;;4949239;28;20047;-82
2022/06/15 15:55:44;;;;;;;4.53;3.40;;;27.20;95.60;;;;;;4946570;29;20039;-82
2022/06/15 15:58:19;;;;;;;9.27;2.72;;;27.30;95.80;;;;;;4965421;28;20039;-81